Time;durP1;ratioP1;P1;durP2;ratioP2;P2;SDS_P1;SDS_P2;PMS_P1;PMS_P2;Temp;Humidity;BMP_temperature;BMP_pressure;BME280_temperature;BME280_humidity;BME280_pressure;Samples;Min_cycle;Max_cycle;Signal;HPM_P1;HPM_P2
2023/01/18 00:01:57;;;;;;;2.03;0.98;;;3.60;99.90;;;;;;6314056;22;20450;-80
2023/01/18 00:04:22;;;;;;;2.03;1.10;;;3.60;99.90;;;;;;6342787;22;20046;-80
2023/01/18 00:06:48;;;;;;;1.48;0.68;;;3.50;99.90;;;;;;6342463;22;19991;-81
2023/01/18 00:09:14;;;;;;;2.08;0.75;;;3.50;99.90;;;;;;6313372;22;20033;-81
2023/01/18 00:11:39;;;;;;;1.60;0.70;;;3.50;99.90;;;;;;6314330;22;20313;-80
2023/01/18 00:14:06;;;;;;;2.10;1.02;;;3.50;99.90;;;;;;6343903;22;20009;-80
2023/01/18 00:16:32;;;;;;;1.45;0.80;;;3.50;99.90;;;;;;6315282;22;20030;-81
2023/01/18 00:18:58;;;;;;;2.30;0.88;;;3.60;99.90;;;;;;6315977;22;20006;-81
2023/01/18 00:21:25;;;;;;;1.20;0.65;;;3.60;99.90;;;;;;6316150;22;20135;-81
2023/01/18 00:23:52;;;;;;;1.60;0.80;;;3.60;99.90;;;;;;6315855;22;20010;-80
2023/01/18 00:26:18;;;;;;;1.65;0.60;;;3.60;99.90;;;;;;6315721;22;20002;-81
2023/01/18 00:28:44;;;;;;;3.90;1.75;;;3.50;99.90;;;;;;6315016;22;20089;-79
2023/01/18 00:31:14;;;;;;;1.40;0.63;;;3.40;99.90;;;;;;6342254;22;20328;-78
2023/01/18 00:33:47;;;;;;;1.17;0.70;;;3.40;99.90;;;;;;6314079;22;20003;-78
2023/01/18 00:36:14;;;;;;;;;;;3.50;99.90;;;;;;6343318;22;20006;-78
2023/01/18 00:38:39;;;;;;;1.52;0.60;;;3.50;99.90;;;;;;6342263;22;19898;-78
2023/01/18 00:41:05;;;;;;;1.70;0.70;;;3.40;99.90;;;;;;6341260;22;20018;-77
2023/01/18 00:43:37;;;;;;;1.58;0.70;;;3.40;99.90;;;;;;6341456;22;20030;-78
2023/01/18 00:46:14;;;;;;;0.80;0.52;;;3.30;99.90;;;;;;6341163;22;20019;-77
2023/01/18 00:48:40;;;;;;;0.65;0.43;;;3.40;99.90;;;;;;6340926;22;20070;-78
2023/01/18 00:51:08;;;;;;;1.00;0.57;;;3.40;99.90;;;;;;6341708;22;19995;-78
2023/01/18 00:53:34;;;;;;;0.73;0.57;;;3.50;99.90;;;;;;6342267;22;20006;-78
2023/01/18 00:56:00;;;;;;;1.20;0.63;;;3.40;99.90;;;;;;6343585;22;19998;-78
2023/01/18 00:58:27;;;;;;;1.15;0.70;;;3.40;99.90;;;;;;6343017;22;19999;-78
2023/01/18 01:00:53;;;;;;;1.40;0.80;;;3.40;99.90;;;;;;6342210;22;20761;-78
2023/01/18 01:03:20;;;;;;;1.17;0.50;;;3.30;99.90;;;;;;6343086;22;20431;-80
2023/01/18 01:08:30;;;;;;;1.05;0.55;;;3.20;99.90;;;;;;6343394;22;20010;-80
2023/01/18 01:11:06;;;;;;;2.08;0.80;;;3.20;99.90;;;;;;6315704;22;20436;-80
2023/01/18 01:27:13;;;;;;;0.80;0.60;;;3.20;99.90;;;;;;6343543;22;20462;-80
2023/01/18 01:29:38;;;;;;;1.00;0.55;;;3.20;99.90;;;;;;6343370;22;19999;-80
2023/01/18 01:32:05;;;;;;;0.82;0.60;;;3.10;99.90;;;;;;6342986;22;19995;-80
2023/01/18 01:34:31;;;;;;;0.50;0.43;;;3.00;99.90;;;;;;6315381;22;19998;-80
2023/01/18 01:36:57;;;;;;;1.25;0.70;;;3.00;99.90;;;;;;6315650;22;20041;-80
2023/01/18 01:39:23;;;;;;;0.65;0.50;;;3.10;99.90;;;;;;6343441;22;20094;-79
2023/01/18 01:41:49;;;;;;;1.30;0.50;;;3.10;99.90;;;;;;6343185;22;20472;-79
2023/01/18 01:44:18;;;;;;;0.68;0.40;;;3.10;99.90;;;;;;6343247;22;19998;-78
2023/01/18 01:47:02;;;;;;;1.73;0.30;;;3.20;99.90;;;;;;6315151;22;20003;-78
2023/01/18 01:49:40;;;;;;;1.13;0.52;;;3.10;99.90;;;;;;6343459;22;20270;-78
2023/01/18 01:52:13;;;;;;;0.70;0.45;;;3.10;99.90;;;;;;6343394;22;20041;-78
2023/01/18 01:54:42;;;;;;;1.00;0.50;;;3.10;99.90;;;;;;6343159;22;20082;-78
2023/01/18 01:57:23;;;;;;;1.17;0.57;;;3.00;99.90;;;;;;6316213;22;20002;-78
2023/01/18 02:00:18;;;;;;;0.82;0.30;;;2.90;99.90;;;;;;6345079;22;20056;-78
2023/01/18 02:02:48;;;;;;;1.08;0.50;;;3.00;99.90;;;;;;6338097;22;20431;-78
2023/01/18 02:05:16;;;;;;;0.63;0.40;;;3.00;99.90;;;;;;6344965;22;19999;-76
2023/01/18 02:07:42;;;;;;;0.57;0.40;;;3.10;99.90;;;;;;6344868;22;20070;-76
2023/01/18 02:10:08;;;;;;;2.33;1.15;;;3.10;99.90;;;;;;6317289;22;20462;-76
2023/01/18 02:12:37;;;;;;;1.52;0.50;;;3.10;99.90;;;;;;6317267;22;20009;-80
2023/01/18 02:15:04;;;;;;;1.95;0.60;;;3.10;99.90;;;;;;6344779;22;20073;-79
2023/01/18 02:17:44;;;;;;;0.60;0.30;;;3.10;99.90;;;;;;6344454;22;19999;-79
2023/01/18 02:20:44;;;;;;;1.52;0.70;;;3.10;99.90;;;;;;6345016;22;20419;-79
2023/01/18 02:23:22;;;;;;;0.73;0.40;;;3.10;99.90;;;;;;6317671;22;20002;-79
2023/01/18 02:26:11;;;;;;;0.47;0.30;;;3.10;99.90;;;;;;6344858;22;20022;-79
2023/01/18 02:28:39;;;;;;;0.70;0.40;;;3.10;99.90;;;;;;6344692;22;20061;-80
2023/01/18 02:31:21;;;;;;;0.80;0.50;;;3.10;99.90;;;;;;6344646;22;20631;-79
2023/01/18 02:34:05;;;;;;;0.95;0.57;;;3.00;99.90;;;;;;6317028;22;20002;-80
2023/01/18 02:36:53;;;;;;;0.73;0.45;;;3.10;99.90;;;;;;6317467;22;20010;-81
2023/01/18 02:39:30;;;;;;;0.40;0.30;;;3.00;99.90;;;;;;6317347;22;20049;-79
2023/01/18 02:47:32;;;;;;;0.70;0.47;;;3.10;99.90;;;;;;6343939;22;20052;-80
2023/01/18 02:49:58;;;;;;;0.68;0.50;;;3.10;99.90;;;;;;6344699;22;20006;-80
2023/01/18 02:52:49;;;;;;;1.60;0.40;;;3.20;99.90;;;;;;6344642;22;19995;-80
2023/01/18 02:55:27;;;;;;;0.65;0.30;;;3.10;99.90;;;;;;6316617;22;20002;-80
2023/01/18 02:57:58;;;;;;;0.85;0.40;;;3.10;99.90;;;;;;6344552;22;20005;-80
2023/01/18 03:00:26;;;;;;;1.33;0.50;;;3.20;99.90;;;;;;6316989;22;20052;-80
2023/01/18 03:02:54;;;;;;;0.73;0.40;;;3.20;99.90;;;;;;6344198;22;20085;-80
2023/01/18 03:05:23;;;;;;;0.90;0.50;;;3.20;99.90;;;;;;6344377;22;20027;-80
2023/01/18 03:07:57;;;;;;;0.80;0.40;;;3.10;99.90;;;;;;6316852;22;20336;-78
2023/01/18 03:10:27;;;;;;;1.30;0.47;;;3.10;99.90;;;;;;6316547;22;20034;-81
2023/01/18 03:13:18;;;;;;;1.27;0.40;;;3.10;99.90;;;;;;6317040;22;20499;-81
2023/01/18 03:15:43;;;;;;;1.13;0.35;;;3.20;99.90;;;;;;6344489;22;20059;-81
2023/01/18 03:18:18;;;;;;;0.90;0.40;;;3.20;99.90;;;;;;6316683;22;20009;-81
2023/01/18 03:20:50;;;;;;;1.00;0.45;;;3.20;99.90;;;;;;6316676;22;20002;-81
2023/01/18 03:23:38;;;;;;;0.40;0.40;;;3.30;99.90;;;;;;6344223;22;20025;-80
2023/01/18 03:26:15;;;;;;;0.50;0.45;;;3.20;99.90;;;;;;6344337;22;20124;-81
2023/01/18 03:34:55;;;;;;;0.60;0.30;;;3.20;99.90;;;;;;6343999;22;20063;-80
2023/01/18 03:37:30;;;;;;;0.75;0.50;;;3.30;99.90;;;;;;6344136;22;20026;-80
2023/01/18 03:40:22;;;;;;;0.43;0.38;;;3.20;99.90;;;;;;6316540;22;20010;-79
2023/01/18 03:43:35;;;;;;;0.57;0.30;;;3.20;99.90;;;;;;6330368;22;20023;-80
2023/01/18 03:46:02;;;;;;;1.92;0.50;;;3.10;99.90;;;;;;6280473;22;20355;-79
2023/01/18 03:48:28;;;;;;;0.90;0.47;;;3.10;99.90;;;;;;6343843;22;20006;-79
2023/01/18 03:51:18;;;;;;;1.25;0.47;;;3.20;99.90;;;;;;6344590;22;20028;-79
2023/01/18 03:54:05;;;;;;;0.60;0.47;;;3.20;99.90;;;;;;6343947;22;20056;-79
2023/01/18 03:56:57;;;;;;;1.40;0.70;;;3.10;99.90;;;;;;6316025;22;20002;-80
2023/01/18 03:59:28;;;;;;;1.02;0.52;;;3.10;99.90;;;;;;6343519;22;20002;-82
2023/01/18 04:01:54;;;;;;;0.85;0.47;;;3.00;99.90;;;;;;6343532;22;19998;-82
2023/01/18 04:04:20;;;;;;;0.50;0.40;;;3.00;99.90;;;;;;6343747;22;20395;-83
2023/01/18 04:06:46;;;;;;;1.23;0.45;;;3.00;99.90;;;;;;6343727;22;20489;-83
2023/01/18 04:09:11;;;;;;;0.73;0.40;;;3.00;99.90;;;;;;6315932;22;19999;-83
2023/01/18 04:11:37;;;;;;;0.50;0.32;;;3.00;99.90;;;;;;6316098;22;20003;-83
2023/01/18 04:14:03;;;;;;;0.88;0.60;;;3.00;99.90;;;;;;6316217;22;20003;-84
2023/01/18 04:16:28;;;;;;;0.60;0.45;;;2.90;99.90;;;;;;6343475;22;20034;-83
2023/01/18 04:18:54;;;;;;;1.67;1.02;;;2.90;99.90;;;;;;6315699;22;20795;-79
2023/01/18 04:21:20;;;;;;;1.55;0.80;;;2.90;99.90;;;;;;6343660;22;19999;-79
2023/01/18 04:23:46;;;;;;;1.25;0.63;;;2.90;99.90;;;;;;6316227;22;20041;-79
2023/01/18 04:26:15;;;;;;;2.20;1.00;;;2.90;99.90;;;;;;6343965;22;20305;-79
2023/01/18 04:28:41;;;;;;;0.82;0.75;;;2.80;99.90;;;;;;6316134;22;20005;-79
2023/01/18 04:31:07;;;;;;;1.27;0.77;;;2.80;99.90;;;;;;6343742;22;20434;-79
2023/01/18 04:33:33;;;;;;;1.17;0.90;;;2.80;99.90;;;;;;6343288;22;20074;-80
2023/01/18 04:35:59;;;;;;;0.95;0.73;;;2.80;99.90;;;;;;6315996;22;20030;-79
2023/01/18 04:38:24;;;;;;;1.67;0.90;;;2.80;99.90;;;;;;6343363;22;20368;-80
2023/01/18 04:40:50;;;;;;;2.80;1.02;;;2.80;99.90;;;;;;6343545;22;20472;-80
2023/01/18 04:43:16;;;;;;;1.67;0.73;;;2.70;99.90;;;;;;6316039;22;20011;-80
2023/01/18 04:45:45;;;;;;;1.42;0.82;;;2.70;99.90;;;;;;6343400;22;19995;-80
2023/01/18 04:48:10;;;;;;;3.05;0.98;;;2.70;99.90;;;;;;6343252;22;19995;-82
2023/01/18 04:50:38;;;;;;;1.75;0.93;;;2.70;99.90;;;;;;6316131;22;19999;-82
2023/01/18 04:53:03;;;;;;;1.17;0.63;;;2.60;99.90;;;;;;6315827;22;20083;-82
2023/01/18 04:55:29;;;;;;;1.58;0.70;;;2.70;99.90;;;;;;6343734;22;20007;-82
2023/01/18 04:57:55;;;;;;;2.90;1.00;;;2.60;99.90;;;;;;6315913;22;20002;-82
2023/01/18 05:00:21;;;;;;;2.35;0.80;;;2.60;99.90;;;;;;6316091;22;20052;-82
2023/01/18 05:02:48;;;;;;;1.13;0.80;;;2.70;99.90;;;;;;6315810;22;20006;-82
2023/01/18 05:05:14;;;;;;;2.28;1.00;;;2.70;99.90;;;;;;6343564;22;20454;-82
2023/01/18 05:07:40;;;;;;;1.08;0.68;;;2.70;99.90;;;;;;6343827;22;19999;-82
2023/01/18 05:10:06;;;;;;;3.42;1.13;;;2.80;99.90;;;;;;6316043;22;20495;-82
2023/01/18 05:12:31;;;;;;;2.00;0.90;;;2.80;99.90;;;;;;6343696;22;20068;-82
2023/01/18 05:14:57;;;;;;;2.50;0.98;;;2.60;99.90;;;;;;6343738;22;20332;-81
2023/01/18 05:17:26;;;;;;;1.75;0.90;;;2.60;99.90;;;;;;6343600;22;20002;-81
2023/01/18 05:19:53;;;;;;;2.58;1.33;;;2.50;99.90;;;;;;6315705;22;20017;-82
2023/01/18 05:22:20;;;;;;;1.23;0.60;;;2.50;99.90;;;;;;6343501;22;20048;-82
2023/01/18 05:24:47;;;;;;;1.48;0.70;;;2.60;99.90;;;;;;6315877;22;20446;-81
2023/01/18 05:27:12;;;;;;;2.83;1.67;;;2.60;99.90;;;;;;6316267;22;20006;-80
2023/01/18 05:29:38;;;;;;;1.45;0.60;;;2.70;99.90;;;;;;6315304;22;20003;-79
2023/01/18 05:32:07;;;;;;;1.40;1.08;;;2.70;99.90;;;;;;6316027;22;19999;-79
2023/01/18 05:34:33;;;;;;;3.05;0.75;;;2.60;99.90;;;;;;6317502;22;20002;-79
2023/01/18 05:36:59;;;;;;;1.30;0.40;;;2.70;99.90;;;;;;6345156;22;19999;-80
2023/01/18 05:39:24;;;;;;;0.85;0.47;;;2.70;99.90;;;;;;6317365;22;20010;-80
2023/01/18 05:41:50;;;;;;;0.65;0.30;;;2.80;99.90;;;;;;6317545;22;20011;-79
2023/01/18 05:44:16;;;;;;;0.90;0.50;;;2.90;99.90;;;;;;6345232;22;20026;-79
2023/01/18 05:46:41;;;;;;;1.17;0.60;;;2.90;99.90;;;;;;6344709;22;19995;-79
2023/01/18 05:49:07;;;;;;;1.67;0.50;;;2.90;99.90;;;;;;6344946;22;20051;-79
2023/01/18 05:51:34;;;;;;;0.85;0.50;;;2.90;99.90;;;;;;6317704;22;19998;-79
2023/01/18 05:54:00;;;;;;;0.90;0.50;;;2.90;99.90;;;;;;6317909;22;20115;-79
2023/01/18 05:56:25;;;;;;;1.05;0.60;;;2.80;99.90;;;;;;6317335;22;20002;-79
2023/01/18 05:58:51;;;;;;;1.52;0.57;;;2.80;99.90;;;;;;6344736;22;20002;-79
2023/01/18 06:01:17;;;;;;;1.50;0.60;;;2.80;99.90;;;;;;6317203;22;20089;-79
2023/01/18 06:03:43;;;;;;;2.25;0.50;;;2.80;99.90;;;;;;6344782;22;20006;-79
2023/01/18 06:06:08;;;;;;;2.28;0.50;;;2.80;99.90;;;;;;6315474;22;20007;-79
2023/01/18 06:08:34;;;;;;;2.45;0.70;;;2.80;99.90;;;;;;6344811;22;20428;-79
2023/01/18 06:11:00;;;;;;;2.83;0.70;;;2.70;99.90;;;;;;6343957;22;20035;-79
2023/01/18 06:13:29;;;;;;;1.20;0.52;;;2.80;99.90;;;;;;6317002;22;20341;-79
2023/01/18 06:15:56;;;;;;;0.98;0.60;;;2.70;99.90;;;;;;6344810;22;19999;-79
2023/01/18 06:18:24;;;;;;;0.43;0.30;;;2.80;99.90;;;;;;6316323;22;20072;-79
2023/01/18 06:20:53;;;;;;;1.08;0.40;;;2.80;99.90;;;;;;6314983;22;20007;-80
2023/01/18 06:23:19;;;;;;;0.93;0.32;;;2.90;99.90;;;;;;6342778;22;20119;-80
2023/01/18 06:25:45;;;;;;;0.50;0.40;;;2.90;99.90;;;;;;6315284;22;20431;-80
2023/01/18 06:28:10;;;;;;;0.63;0.30;;;3.00;99.90;;;;;;6342197;22;20006;-80
2023/01/18 06:30:36;;;;;;;1.17;0.30;;;3.10;99.90;;;;;;6342850;22;19999;-80
2023/01/18 06:33:05;;;;;;;0.30;0.20;;;3.10;99.90;;;;;;6314146;22;20125;-80
2023/01/18 06:35:32;;;;;;;0.47;0.30;;;3.10;99.90;;;;;;6342492;22;20052;-79
2023/01/18 06:37:58;;;;;;;0.40;0.28;;;3.20;99.90;;;;;;6343421;22;20288;-82
2023/01/18 06:40:24;;;;;;;0.90;0.35;;;3.20;99.90;;;;;;6343650;22;20003;-82
2023/01/18 06:42:50;;;;;;;0.35;0.20;;;3.20;99.90;;;;;;6343800;22;20021;-82
2023/01/18 06:45:18;;;;;;;0.32;0.30;;;3.20;99.90;;;;;;6316460;22;19999;-81
2023/01/18 06:47:44;;;;;;;1.05;0.40;;;3.10;99.90;;;;;;6317017;22;20332;-81
2023/01/18 06:50:10;;;;;;;0.85;0.32;;;3.10;99.90;;;;;;6343593;22;20003;-79
2023/01/18 06:52:36;;;;;;;0.85;0.35;;;3.10;99.90;;;;;;6343271;22;19995;-80
2023/01/18 06:55:02;;;;;;;0.30;0.30;;;3.10;99.90;;;;;;6343519;22;20048;-80
2023/01/18 06:57:27;;;;;;;0.30;0.20;;;3.10;99.90;;;;;;6344392;22;20408;-81
2023/01/18 06:59:53;;;;;;;0.28;0.20;;;3.10;99.90;;;;;;6316911;22;20052;-79
2023/01/18 07:02:20;;;;;;;0.45;0.30;;;3.10;99.90;;;;;;6316263;22;20011;-79
2023/01/18 07:04:46;;;;;;;0.57;0.30;;;3.10;99.90;;;;;;6344111;22;20003;-80
2023/01/18 07:07:13;;;;;;;1.30;0.50;;;3.00;99.90;;;;;;6344466;22;20005;-80
2023/01/18 07:09:38;;;;;;;0.45;0.30;;;3.10;99.90;;;;;;6344145;22;20438;-80
2023/01/18 07:12:04;;;;;;;1.33;0.20;;;3.00;99.90;;;;;;6316607;22;20078;-81
2023/01/18 07:14:30;;;;;;;1.08;0.30;;;3.00;99.90;;;;;;6316773;22;20056;-81
2023/01/18 07:16:55;;;;;;;0.75;0.20;;;3.10;99.90;;;;;;6343784;22;20005;-84
2023/01/18 07:19:21;;;;;;;1.00;0.30;;;3.10;99.90;;;;;;6343623;22;20505;-81
2023/01/18 07:21:48;;;;;;;0.65;0.40;;;3.00;99.90;;;;;;6343440;22;20010;-82
2023/01/18 07:24:14;;;;;;;0.60;0.30;;;;;;;;;;6315893;22;20336;-77
2023/01/18 07:26:39;;;;;;;0.60;0.32;;;3.00;99.90;;;;;;6344407;22;19999;-76
2023/01/18 07:29:05;;;;;;;0.47;0.20;;;3.00;99.90;;;;;;6315947;22;20010;-73
2023/01/18 07:31:31;;;;;;;1.33;0.50;;;3.00;99.90;;;;;;6341506;22;20074;-72
2023/01/18 07:33:57;;;;;;;0.98;0.30;;;3.00;99.90;;;;;;6343856;22;20062;-73
2023/01/18 07:36:22;;;;;;;0.50;0.30;;;3.00;99.90;;;;;;6344046;22;20037;-73
2023/01/18 07:38:48;;;;;;;1.10;0.40;;;3.00;99.90;;;;;;6343815;22;20002;-74
2023/01/18 07:41:15;;;;;;;0.25;0.20;;;2.90;99.90;;;;;;6343579;22;19999;-71
2023/01/18 07:43:43;;;;;;;0.60;0.30;;;2.90;99.90;;;;;;6344076;22;20014;-76
2023/01/18 07:46:12;;;;;;;0.20;0.20;;;2.90;99.90;;;;;;6343451;22;20006;-75
2023/01/18 07:48:38;;;;;;;0.32;0.28;;;3.00;99.90;;;;;;6343470;22;20045;-76
2023/01/18 07:51:05;;;;;;;0.68;0.28;;;3.00;99.90;;;;;;6343595;22;20431;-76
2023/01/18 07:53:34;;;;;;;0.43;0.30;;;3.00;99.90;;;;;;6343648;22;19998;-75
2023/01/18 07:56:01;;;;;;;0.93;0.22;;;3.00;99.90;;;;;;6316090;22;19999;-74
2023/01/18 07:58:28;;;;;;;0.70;0.40;;;3.00;99.90;;;;;;6343766;22;20070;-75
2023/01/18 08:00:53;;;;;;;0.45;0.20;;;3.00;99.90;;;;;;6343152;22;20082;-77
2023/01/18 08:03:20;;;;;;;0.88;0.38;;;3.10;99.90;;;;;;6341034;22;20042;-76
2023/01/18 08:05:46;;;;;;;0.20;0.20;;;3.10;99.90;;;;;;6343111;22;19995;-77
2023/01/18 08:08:17;;;;;;;0.47;0.30;;;3.10;99.90;;;;;;6343325;22;19995;-76
2023/01/18 08:10:43;;;;;;;0.50;0.30;;;3.10;99.90;;;;;;6315700;22;20010;-77
2023/01/18 08:13:10;;;;;;;0.68;0.30;;;3.10;99.90;;;;;;6343133;22;20003;-77
2023/01/18 08:15:37;;;;;;;0.40;0.30;;;3.10;99.90;;;;;;6343720;22;20006;-76
2023/01/18 08:18:05;;;;;;;1.10;0.68;;;3.10;99.90;;;;;;6343055;22;20030;-76
2023/01/18 08:20:31;;;;;;;0.50;0.30;;;3.10;99.90;;;;;;6343583;22;20030;-77
2023/01/18 08:22:58;;;;;;;1.75;0.50;;;3.10;99.90;;;;;;6315676;22;20006;-76
2023/01/18 08:25:29;;;;;;;0.77;0.50;;;3.10;99.90;;;;;;6315706;22;19999;-76
2023/01/18 08:27:59;;;;;;;0.45;0.30;;;3.10;99.90;;;;;;6343475;22;19995;-76
2023/01/18 08:30:30;;;;;;;0.68;0.40;;;3.10;99.90;;;;;;6316043;22;20009;-77
2023/01/18 08:32:58;;;;;;;0.98;0.55;;;3.10;99.90;;;;;;6314934;22;20044;-76
2023/01/18 08:35:27;;;;;;;0.90;0.50;;;3.10;99.90;;;;;;6343806;22;20005;-76
2023/01/18 08:37:53;;;;;;;0.70;0.50;;;3.10;99.90;;;;;;6343396;22;20470;-76
2023/01/18 08:40:20;;;;;;;1.08;0.55;;;3.10;99.90;;;;;;6343638;22;20002;-76
2023/01/18 08:42:46;;;;;;;1.13;0.52;;;3.10;99.90;;;;;;6315260;22;20011;-76
2023/01/18 08:45:13;;;;;;;0.93;0.50;;;3.10;99.90;;;;;;6343485;22;20427;-74
2023/01/18 08:47:39;;;;;;;1.13;0.68;;;3.00;99.90;;;;;;6315235;22;20059;-74
2023/01/18 08:50:07;;;;;;;0.47;0.38;;;3.00;99.90;;;;;;6315857;22;20002;-76
2023/01/18 08:52:35;;;;;;;0.70;0.40;;;3.00;99.90;;;;;;6315630;22;20003;-77
2023/01/18 08:55:05;;;;;;;0.40;0.30;;;3.10;99.90;;;;;;6343767;22;20003;-76
2023/01/18 08:57:31;;;;;;;0.93;0.40;;;3.10;99.90;;;;;;6315712;22;20014;-75
2023/01/18 08:59:57;;;;;;;0.98;0.50;;;3.10;99.90;;;;;;6343692;22;20078;-76
2023/01/18 09:02:26;;;;;;;0.40;0.35;;;3.20;99.90;;;;;;6342898;22;19999;-76
2023/01/18 09:04:52;;;;;;;0.90;0.30;;;3.20;99.90;;;;;;6315370;22;20010;-77
2023/01/18 09:07:18;;;;;;;2.85;0.50;;;3.20;99.90;;;;;;6345900;22;20030;-76
2023/01/18 09:09:44;;;;;;;0.88;0.60;;;3.20;99.90;;;;;;6319336;22;20010;-75
2023/01/18 09:12:11;;;;;;;0.93;0.70;;;3.20;99.90;;;;;;6346878;22;20066;-76
2023/01/18 09:14:37;;;;;;;1.13;0.57;;;3.20;99.90;;;;;;6346819;22;20003;-75
2023/01/18 09:17:03;;;;;;;1.80;0.77;;;3.20;99.90;;;;;;6346559;22;20055;-76
2023/01/18 09:19:29;;;;;;;0.60;0.50;;;3.20;99.90;;;;;;6346959;22;20010;-76
2023/01/18 09:21:54;;;;;;;0.75;0.50;;;3.10;99.90;;;;;;6346665;22;20005;-75
2023/01/18 09:24:20;;;;;;;2.30;0.70;;;3.10;99.90;;;;;;6345904;22;20006;-75
2023/01/18 09:26:52;;;;;;;0.80;0.60;;;3.20;99.90;;;;;;6346445;22;20001;-76
2023/01/18 09:29:18;;;;;;;1.58;0.50;;;3.20;99.90;;;;;;6346325;22;20028;-75
2023/01/18 09:31:44;;;;;;;1.10;0.70;;;3.20;99.90;;;;;;6346205;22;20066;-76
2023/01/18 09:34:12;;;;;;;0.90;0.52;;;3.20;99.90;;;;;;6345966;22;20048;-76
2023/01/18 09:36:38;;;;;;;1.23;0.70;;;3.20;99.90;;;;;;6318660;22;20002;-76
2023/01/18 09:39:05;;;;;;;0.80;0.50;;;3.20;99.90;;;;;;6346428;22;20013;-76
2023/01/18 09:41:35;;;;;;;1.50;0.70;;;3.20;99.90;;;;;;6346876;22;20015;-74
2023/01/18 09:44:12;;;;;;;1.77;0.40;;;3.20;99.90;;;;;;6318748;22;20011;-76
2023/01/18 09:46:40;;;;;;;0.70;0.40;;;3.20;99.90;;;;;;6346620;22;19995;-74
2023/01/18 09:49:14;;;;;;;3.80;0.80;;;3.30;99.90;;;;;;6346443;22;19998;-76
2023/01/18 09:51:51;;;;;;;0.93;0.50;;;3.30;99.90;;;;;;6346630;22;19999;-76
2023/01/18 09:54:32;;;;;;;0.60;0.30;;;3.20;99.90;;;;;;6346462;22;20003;-76
2023/01/18 09:57:22;;;;;;;0.77;0.52;;;3.30;99.90;;;;;;6346892;22;20007;-77
2023/01/18 09:59:54;;;;;;;0.50;0.40;;;3.30;99.90;;;;;;6318677;22;20082;-76
2023/01/18 10:02:39;;;;;;;0.38;0.32;;;3.30;99.90;;;;;;6318390;22;20010;-76
2023/01/18 10:05:10;;;;;;;0.77;0.43;;;3.40;99.90;;;;;;6346360;22;20003;-75
2023/01/18 10:07:47;;;;;;;0.55;0.30;;;3.40;99.90;;;;;;6318324;22;20049;-74
2023/01/18 10:10:17;;;;;;;0.47;0.40;;;3.40;99.90;;;;;;6345861;22;19999;-74
2023/01/18 10:12:50;;;;;;;0.77;0.40;;;3.50;99.90;;;;;;6318005;22;20013;-77
2023/01/18 10:15:33;;;;;;;0.63;0.50;;;3.50;99.90;;;;;;6346491;22;20048;-76
2023/01/18 10:17:59;;;;;;;0.65;0.50;;;3.40;99.90;;;;;;6316934;22;20243;-76
2023/01/18 10:20:32;;;;;;;1.05;0.40;;;3.50;99.90;;;;;;6345120;22;20034;-76
2023/01/18 10:23:02;;;;;;;0.75;0.38;;;3.50;99.90;;;;;;6343919;22;20002;-75
2023/01/18 10:25:44;;;;;;;0.52;0.30;;;3.60;99.90;;;;;;6344724;22;20420;-79
2023/01/18 10:28:38;;;;;;;0.60;0.40;;;3.70;99.90;;;;;;6316616;22;20013;-76
2023/01/18 10:31:22;;;;;;;0.60;0.50;;;3.70;99.90;;;;;;6317130;22;20041;-73
2023/01/18 10:33:54;;;;;;;0.40;0.40;;;3.80;99.90;;;;;;6344091;22;20007;-76
2023/01/18 10:36:37;;;;;;;0.57;0.40;;;3.90;99.90;;;;;;6316609;22;20080;-77
2023/01/18 10:39:12;;;;;;;0.50;0.50;;;4.00;99.90;;;;;;6344062;22;19998;-75
2023/01/18 10:41:39;;;;;;;0.57;0.40;;;4.10;99.90;;;;;;6344220;22;20493;-73
2023/01/18 10:44:08;;;;;;;0.82;0.40;;;4.20;99.90;;;;;;6316555;22;20021;-75
2023/01/18 10:46:34;;;;;;;0.75;0.50;;;4.20;99.90;;;;;;6344003;22;19995;-75
2023/01/18 10:48:59;;;;;;;1.17;0.70;;;4.30;99.90;;;;;;6316477;22;20009;-74
2023/01/18 10:51:31;;;;;;;0.60;0.40;;;4.50;99.90;;;;;;6344570;22;20446;-73
2023/01/18 10:53:57;;;;;;;0.60;0.50;;;4.50;99.90;;;;;;6343887;22;20002;-76
2023/01/18 10:56:25;;;;;;;0.68;0.35;;;4.50;99.90;;;;;;6344576;22;20018;-76
2023/01/18 10:58:53;;;;;;;1.58;0.40;;;4.60;99.90;;;;;;6343497;22;20010;-76
2023/01/18 11:01:34;;;;;;;1.10;0.50;;;4.70;99.90;;;;;;6316434;22;20041;-77
2023/01/18 11:04:06;;;;;;;0.70;0.40;;;4.70;99.90;;;;;;6344200;22;20124;-76
2023/01/18 11:06:52;;;;;;;0.90;0.38;;;4.80;99.90;;;;;;6316098;22;20033;-72
2023/01/18 11:09:36;;;;;;;0.98;0.47;;;4.80;99.90;;;;;;6344231;22;19995;-72
2023/01/18 11:12:33;;;;;;;0.45;0.30;;;4.80;99.90;;;;;;6344754;22;19995;-74
2023/01/18 11:15:26;;;;;;;0.68;0.28;;;4.80;99.90;;;;;;6343705;22;19998;-74
2023/01/18 11:17:59;;;;;;;0.40;0.30;;;4.70;99.90;;;;;;6310607;22;20018;-74
2023/01/18 11:20:28;;;;;;;0.77;0.40;;;4.70;99.90;;;;;;6342394;22;19999;-73
2023/01/18 11:22:59;;;;;;;1.52;0.40;;;4.70;99.90;;;;;;6342506;22;19999;-77
2023/01/18 11:25:33;;;;;;;0.30;0.20;;;4.70;99.90;;;;;;6341564;22;20429;-71
2023/01/18 11:28:06;;;;;;;0.65;0.38;;;4.70;99.90;;;;;;6342297;22;20048;-75
2023/01/18 11:30:33;;;;;;;1.17;0.40;;;4.70;99.90;;;;;;6342786;22;19995;-74
2023/01/18 11:32:59;;;;;;;0.82;0.50;;;4.60;99.90;;;;;;6343269;22;19995;-75
2023/01/18 11:35:44;;;;;;;1.13;0.47;;;4.60;99.90;;;;;;6343939;22;19999;-75
2023/01/18 11:38:17;;;;;;;1.10;0.50;;;4.60;99.90;;;;;;6344252;22;20073;-74
2023/01/18 11:40:43;;;;;;;0.73;0.50;;;4.50;99.90;;;;;;6315880;22;20407;-73
2023/01/18 11:43:08;;;;;;;1.02;0.50;;;4.50;99.90;;;;;;6344097;22;20052;-75
2023/01/18 11:45:41;;;;;;;1.38;0.73;;;4.40;99.90;;;;;;6316423;22;20007;-75
2023/01/18 11:48:25;;;;;;;0.75;0.40;;;4.40;99.90;;;;;;6316100;22;20027;-75
2023/01/18 11:51:01;;;;;;;0.70;0.50;;;4.30;99.90;;;;;;6316026;22;20005;-75
2023/01/18 11:53:45;;;;;;;1.02;0.50;;;4.30;99.90;;;;;;6344212;22;20376;-76
2023/01/18 11:56:43;;;;;;;0.82;0.45;;;4.30;99.90;;;;;;6343908;22;20424;-76
2023/01/18 11:59:17;;;;;;;1.48;0.32;;;4.20;99.90;;;;;;6344143;22;20003;-75
2023/01/18 12:01:49;;;;;;;0.98;0.50;;;4.20;99.90;;;;;;6343276;22;20082;-74
2023/01/18 12:04:42;;;;;;;0.57;0.40;;;4.00;99.90;;;;;;6315636;22;20006;-74
2023/01/18 12:07:08;;;;;;;0.77;0.50;;;4.00;99.90;;;;;;6342741;22;20055;-73
2023/01/18 12:09:52;;;;;;;0.93;0.50;;;3.90;99.90;;;;;;6343770;22;20478;-72
2023/01/18 12:13:00;;;;;;;0.63;0.40;;;3.80;99.90;;;;;;6344204;22;20044;-73
2023/01/18 12:15:48;;;;;;;0.95;0.40;;;3.80;99.90;;;;;;6291707;22;20011;-74
2023/01/18 12:18:56;;;;;;;0.70;0.50;;;3.80;99.90;;;;;;6316138;22;20003;-73
2023/01/18 12:22:04;;;;;;;1.30;0.60;;;3.80;99.90;;;;;;6278544;22;20008;-72
2023/01/18 12:25:03;;;;;;;0.30;0.20;;;3.90;99.90;;;;;;6279024;22;20016;-74
2023/01/18 12:27:53;;;;;;;0.82;0.47;;;4.00;99.90;;;;;;6342891;22;20010;-76
2023/01/18 12:30:24;;;;;;;0.85;0.40;;;4.00;99.90;;;;;;6343641;22;20010;-74
2023/01/18 12:33:15;;;;;;;0.60;0.47;;;4.00;99.90;;;;;;6343554;22;19999;-74
2023/01/18 12:36:06;;;;;;;1.02;0.50;;;4.10;99.90;;;;;;6342983;22;19999;-72
2023/01/18 12:38:33;;;;;;;2.35;0.50;;;4.10;99.90;;;;;;6313986;22;19998;-73
2023/01/18 12:41:30;;;;;;;1.20;0.82;;;4.00;99.90;;;;;;6342039;22;20027;-73
2023/01/18 12:44:30;;;;;;;0.95;0.63;;;4.10;99.90;;;;;;6342512;22;20107;-73
2023/01/18 12:47:13;;;;;;;1.60;0.75;;;4.20;99.90;;;;;;6342376;22;20022;-73
2023/01/18 12:49:45;;;;;;;2.35;0.80;;;4.10;99.90;;;;;;6314869;22;20094;-75
2023/01/18 12:52:13;;;;;;;1.45;0.68;;;4.20;99.90;;;;;;6341981;22;20372;-73
2023/01/18 12:54:47;;;;;;;1.35;0.80;;;4.20;99.90;;;;;;6314557;22;20003;-74
2023/01/18 12:57:15;;;;;;;0.52;0.43;;;4.30;99.90;;;;;;6343190;22;20010;-73
2023/01/18 12:59:52;;;;;;;1.20;0.80;;;4.40;99.90;;;;;;6342044;22;20037;-74
2023/01/18 13:02:32;;;;;;;1.05;0.60;;;4.40;99.90;;;;;;6342154;22;19999;-73
2023/01/18 13:05:36;;;;;;;1.10;0.50;;;4.50;99.90;;;;;;6315615;22;20444;-74
2023/01/18 13:08:09;;;;;;;1.00;0.43;;;4.60;99.90;;;;;;6342184;22;19999;-74
2023/01/18 13:10:35;;;;;;;1.30;0.90;;;4.60;99.90;;;;;;6343118;22;20006;-73
2023/01/18 13:13:04;;;;;;;1.33;0.60;;;4.60;99.90;;;;;;6343059;22;20420;-74
2023/01/18 13:15:46;;;;;;;1.23;0.75;;;4.70;99.90;;;;;;6314551;22;19999;-73
2023/01/18 13:18:23;;;;;;;1.30;0.50;;;4.70;99.90;;;;;;6342244;22;19995;-73
2023/01/18 13:21:24;;;;;;;0.65;0.50;;;4.60;99.90;;;;;;6342693;22;20026;-74
2023/01/18 13:24:02;;;;;;;1.85;0.60;;;4.60;99.90;;;;;;6343411;22;20061;-74
2023/01/18 13:26:30;;;;;;;1.42;0.50;;;4.60;99.90;;;;;;6315461;22;19998;-75
2023/01/18 13:29:21;;;;;;;0.60;0.50;;;4.60;99.90;;;;;;6343365;22;20444;-75
2023/01/18 13:31:47;;;;;;;2.25;0.77;;;4.60;99.90;;;;;;6342574;22;20023;-74
2023/01/18 13:34:29;;;;;;;1.02;0.55;;;4.60;99.90;;;;;;6343627;22;20002;-74
2023/01/18 13:36:56;;;;;;;2.28;0.80;;;4.60;99.90;;;;;;6343364;22;19999;-75
2023/01/18 13:39:22;;;;;;;0.77;0.40;;;4.60;99.90;;;;;;6343463;22;19999;-75
2023/01/18 13:42:03;;;;;;;1.67;0.50;;;4.60;99.90;;;;;;6309963;22;20015;-73
2023/01/18 13:44:44;;;;;;;0.63;0.32;;;4.60;99.90;;;;;;6311599;22;20007;-73
2023/01/18 13:47:35;;;;;;;1.35;0.77;;;4.60;99.90;;;;;;6311201;22;20000;-74
2023/01/18 13:50:01;;;;;;;1.17;0.55;;;4.70;99.90;;;;;;6311505;22;20026;-73